Time;durP1;ratioP1;P1;durP2;ratioP2;P2;SDS_P1;SDS_P2;PMS_P1;PMS_P2;Temp;Humidity;BMP_temperature;BMP_pressure;BME280_temperature;BME280_humidity;BME280_pressure;Samples;Min_cycle;Max_cycle;Signal;HPM_P1;HPM_P2
2023/12/17 00:01:24;;;;;;;244.73;110.75;;;-1.70;99.90;;;;;;5074818;28;20028;-54
2023/12/17 00:03:50;;;;;;;227.57;97.97;;;-1.80;99.90;;;;;;5074999;27;20059;-54
2023/12/17 00:06:16;;;;;;;246.00;107.22;;;-1.70;99.90;;;;;;5078498;28;20032;-54
2023/12/17 00:08:43;;;;;;;252.93;116.07;;;-1.70;99.90;;;;;;5078474;28;20024;-54
2023/12/17 00:11:09;;;;;;;265.17;112.72;;;-1.70;99.90;;;;;;5078467;28;20024;-55
2023/12/17 00:13:36;;;;;;;255.68;107.78;;;-1.80;99.90;;;;;;5078355;28;20025;-54
2023/12/17 00:16:02;;;;;;;250.77;104.78;;;-1.90;99.90;;;;;;5078707;28;20029;-54
2023/12/17 00:18:28;;;;;;;257.95;108.88;;;-1.80;99.90;;;;;;5078053;27;20021;-55
2023/12/17 00:20:54;;;;;;;250.80;108.25;;;-1.90;99.90;;;;;;5078436;28;20496;-55
2023/12/17 00:23:20;;;;;;;210.68;96.18;;;-2.10;99.90;;;;;;5078317;28;20496;-55
2023/12/17 00:25:46;;;;;;;217.38;95.65;;;-2.10;99.90;;;;;;5078231;28;20385;-55
2023/12/17 00:28:14;;;;;;;266.00;114.97;;;-2.10;99.90;;;;;;5078053;28;20028;-54
2023/12/17 00:30:40;;;;;;;265.10;118.65;;;-2.10;99.90;;;;;;5078078;28;20075;-54
2023/12/17 00:33:06;;;;;;;329.33;138.57;;;-2.20;99.90;;;;;;5078068;28;20428;-54
2023/12/17 00:35:32;;;;;;;411.02;167.50;;;-2.20;99.90;;;;;;5078133;27;20033;-54
2023/12/17 00:37:58;;;;;;;389.88;160.95;;;-2.20;99.90;;;;;;5077868;28;20142;-54
2023/12/17 00:40:24;;;;;;;358.63;148.90;;;-2.20;99.90;;;;;;5078000;28;20032;-54
2023/12/17 00:42:50;;;;;;;360.63;152.43;;;-2.20;99.90;;;;;;5077847;28;20425;-54
2023/12/17 00:45:16;;;;;;;335.65;142.52;;;-2.20;99.90;;;;;;5077903;28;20085;-54
2023/12/17 00:47:42;;;;;;;325.30;140.77;;;-2.20;99.90;;;;;;5077646;28;20036;-55
2023/12/17 00:50:08;;;;;;;350.33;141.88;;;-2.10;99.90;;;;;;5077645;27;20072;-54
2023/12/17 00:52:34;;;;;;;313.42;133.43;;;-2.10;99.90;;;;;;5078042;28;20055;-54
2023/12/17 00:55:00;;;;;;;314.33;133.23;;;-2.10;99.90;;;;;;5077754;28;20056;-54
2023/12/17 00:57:26;;;;;;;387.08;144.25;;;-2.20;99.90;;;;;;5077596;28;20157;-54
2023/12/17 00:59:52;;;;;;;355.27;142.27;;;-2.10;99.90;;;;;;5077597;28;20047;-54
2023/12/17 01:02:18;;;;;;;380.00;151.25;;;-2.00;99.90;;;;;;5077531;28;20029;-54
2023/12/17 01:04:44;;;;;;;365.60;151.32;;;-1.80;99.90;;;;;;5077416;27;20035;-55
2023/12/17 01:07:10;;;;;;;345.73;145.68;;;-1.70;99.90;;;;;;5077509;28;20390;-54
2023/12/17 01:09:37;;;;;;;362.48;149.57;;;-1.80;99.90;;;;;;5077398;28;20043;-54
2023/12/17 01:12:04;;;;;;;319.23;133.45;;;-1.70;99.90;;;;;;5077315;28;20029;-54
2023/12/17 01:14:34;;;;;;;317.83;131.88;;;-1.80;99.90;;;;;;5077634;28;20016;-54
2023/12/17 01:17:02;;;;;;;269.27;117.88;;;-1.90;99.90;;;;;;5076665;28;20035;-54
2023/12/17 01:19:28;;;;;;;248.93;110.70;;;-2.00;99.90;;;;;;5077264;27;20098;-54
2023/12/17 01:21:54;;;;;;;265.70;114.72;;;-2.00;99.90;;;;;;5077198;28;20440;-54
2023/12/17 01:24:20;;;;;;;332.20;139.65;;;-1.90;99.90;;;;;;5077259;28;20028;-54
2023/12/17 01:26:46;;;;;;;477.88;188.00;;;-1.90;99.90;;;;;;5076976;28;20115;-54
2023/12/17 01:29:12;;;;;;;353.35;140.15;;;-2.10;99.90;;;;;;5077067;28;20032;-55
2023/12/17 01:31:38;;;;;;;350.30;140.88;;;-2.10;99.90;;;;;;5076824;28;20474;-54
2023/12/17 01:34:03;;;;;;;403.48;148.80;;;-2.10;99.90;;;;;;5076949;28;20024;-54
2023/12/17 01:36:29;;;;;;;405.77;150.85;;;-2.10;99.90;;;;;;5076569;27;20036;-54
2023/12/17 01:38:55;;;;;;;411.80;153.30;;;-2.00;99.90;;;;;;5076874;28;20031;-54
2023/12/17 01:41:21;;;;;;;394.05;149.23;;;-1.90;99.90;;;;;;5076746;28;20047;-54
2023/12/17 01:43:47;;;;;;;359.13;138.68;;;-1.80;99.90;;;;;;5076812;28;20029;-54
2023/12/17 01:46:14;;;;;;;426.35;159.73;;;-1.70;99.90;;;;;;5076589;28;20033;-54
2023/12/17 01:48:41;;;;;;;424.65;152.35;;;-1.80;99.90;;;;;;5076548;28;20394;-54
2023/12/17 01:51:08;;;;;;;414.92;153.68;;;-1.90;99.90;;;;;;5076404;27;20040;-54
2023/12/17 01:53:34;;;;;;;367.15;142.18;;;-2.00;99.90;;;;;;5076487;28;20470;-54
2023/12/17 01:56:01;;;;;;;379.17;146.77;;;-2.00;99.90;;;;;;5076479;28;20035;-54
2023/12/17 01:58:28;;;;;;;468.52;176.77;;;-2.10;99.90;;;;;;5076363;28;20183;-54
2023/12/17 02:00:55;;;;;;;455.15;171.68;;;-2.10;99.90;;;;;;5076336;28;20493;-55
2023/12/17 02:03:21;;;;;;;378.23;143.65;;;-2.10;99.90;;;;;;5076420;28;20024;-54
2023/12/17 02:05:47;;;;;;;295.15;120.55;;;-2.10;99.90;;;;;;5076175;27;20482;-54
2023/12/17 02:08:13;;;;;;;306.52;124.18;;;-2.10;99.90;;;;;;5076650;28;20476;-55
2023/12/17 02:10:39;;;;;;;311.60;125.70;;;-2.10;99.90;;;;;;5076159;28;20032;-55
2023/12/17 02:13:07;;;;;;;327.23;134.88;;;-2.10;99.90;;;;;;5076153;28;20020;-54
2023/12/17 02:15:33;;;;;;;321.27;130.15;;;-2.20;99.90;;;;;;5076163;28;20028;-54
2023/12/17 02:17:59;;;;;;;275.83;112.68;;;-2.10;99.90;;;;;;5076009;28;20127;-54
2023/12/17 02:20:25;;;;;;;262.40;108.43;;;-2.10;99.90;;;;;;5075882;27;20040;-54
2023/12/17 02:22:55;;;;;;;263.83;108.60;;;-2.10;99.90;;;;;;5075997;28;20036;-54
2023/12/17 02:25:21;;;;;;;258.27;105.40;;;-2.10;99.90;;;;;;5076033;28;20028;-54
2023/12/17 02:27:47;;;;;;;271.90;110.45;;;-2.10;99.90;;;;;;5075007;28;20035;-54
2023/12/17 02:30:13;;;;;;;263.48;109.10;;;-2.00;99.90;;;;;;5075824;28;20036;-54
2023/12/17 02:32:39;;;;;;;260.98;107.32;;;-2.00;99.90;;;;;;5075925;28;20027;-55
2023/12/17 02:35:05;;;;;;;277.17;112.60;;;-2.10;99.90;;;;;;5075860;28;20051;-54
2023/12/17 02:37:31;;;;;;;253.55;105.07;;;-2.10;99.90;;;;;;5075513;27;20138;-54
2023/12/17 02:39:57;;;;;;;229.52;93.95;;;-2.20;99.90;;;;;;5075797;28;20028;-54
2023/12/17 02:42:23;;;;;;;223.35;93.82;;;-2.20;99.90;;;;;;5075604;28;20126;-54
2023/12/17 02:44:49;;;;;;;202.15;86.75;;;-2.20;99.90;;;;;;5074287;28;20029;-54
2023/12/17 02:47:15;;;;;;;201.15;90.38;;;-2.10;99.90;;;;;;5075604;28;20463;-54
2023/12/17 02:49:41;;;;;;;219.80;103.85;;;-2.00;99.90;;;;;;5075367;27;20052;-54
2023/12/17 02:52:07;;;;;;;236.60;108.70;;;-2.00;99.90;;;;;;5075503;28;20550;-54
2023/12/17 02:54:33;;;;;;;247.82;105.65;;;-1.90;99.90;;;;;;5075604;28;20050;-54
2023/12/17 02:56:59;;;;;;;233.52;100.25;;;-1.90;99.90;;;;;;5075480;28;20115;-54
2023/12/17 02:59:25;;;;;;;217.50;90.05;;;-1.80;99.90;;;;;;5075640;28;20047;-54
2023/12/17 03:01:51;;;;;;;218.43;97.18;;;-1.80;99.90;;;;;;5075547;28;20067;-54
2023/12/17 03:04:17;;;;;;;225.00;98.50;;;-1.80;99.90;;;;;;5075731;28;20032;-54
2023/12/17 03:06:43;;;;;;;223.60;96.72;;;-1.80;99.90;;;;;;5075428;28;20127;-54
2023/12/17 03:09:10;;;;;;;213.63;92.47;;;-1.90;99.90;;;;;;5075497;28;20547;-54
2023/12/17 03:11:37;;;;;;;178.30;77.05;;;-2.00;99.90;;;;;;5075546;28;20454;-54
2023/12/17 03:14:03;;;;;;;179.05;75.82;;;-2.00;99.90;;;;;;5075235;27;20045;-54
2023/12/17 03:16:29;;;;;;;178.38;79.20;;;-1.90;99.90;;;;;;5075367;28;20462;-54
2023/12/17 03:18:55;;;;;;;170.07;73.78;;;-1.90;99.90;;;;;;5075456;28;20052;-54
2023/12/17 03:21:23;;;;;;;191.35;83.55;;;-1.90;99.90;;;;;;5075342;28;20504;-54
2023/12/17 03:23:50;;;;;;;205.23;87.13;;;-1.90;99.90;;;;;;5075548;28;20086;-54
2023/12/17 03:26:16;;;;;;;198.27;86.43;;;-2.00;99.90;;;;;;5075271;28;20317;-54
2023/12/17 03:28:42;;;;;;;192.25;81.90;;;-2.00;99.90;;;;;;5075121;27;20040;-54
2023/12/17 03:31:15;;;;;;;185.02;82.32;;;-2.10;99.90;;;;;;5075124;28;20042;-54
2023/12/17 03:33:42;;;;;;;201.07;86.57;;;-2.20;99.90;;;;;;5075175;28;20509;-54
2023/12/17 03:36:08;;;;;;;176.75;77.07;;;-2.20;99.90;;;;;;5075064;28;20032;-54
2023/12/17 03:38:34;;;;;;;170.02;74.95;;;-2.20;99.90;;;;;;5075132;28;20059;-54
2023/12/17 03:41:00;;;;;;;179.88;79.90;;;-2.20;99.90;;;;;;5079102;28;20033;-54
2023/12/17 03:43:25;;;;;;;171.10;73.13;;;-2.30;99.90;;;;;;5078982;27;20115;-55
2023/12/17 03:45:51;;;;;;;147.30;63.55;;;-2.30;99.90;;;;;;5078997;28;20020;-54
2023/12/17 03:48:17;;;;;;;138.45;60.25;;;-2.20;99.90;;;;;;5078763;28;20404;-54
2023/12/17 03:50:43;;;;;;;129.23;57.65;;;-2.20;99.90;;;;;;5078974;28;20031;-54
2023/12/17 03:53:10;;;;;;;146.45;64.15;;;-2.30;99.90;;;;;;5078857;28;20027;-54
2023/12/17 03:55:37;;;;;;;148.45;64.35;;;-2.30;99.90;;;;;;5078885;28;20028;-54
2023/12/17 03:58:04;;;;;;;136.98;61.45;;;-2.30;99.90;;;;;;5078750;28;20489;-54
2023/12/17 04:00:30;;;;;;;134.38;56.58;;;-2.30;99.90;;;;;;5078809;27;20040;-54
2023/12/17 04:02:56;;;;;;;121.15;56.22;;;-2.30;99.90;;;;;;5078579;28;20562;-54
2023/12/17 04:05:25;;;;;;;117.30;54.58;;;-2.30;99.90;;;;;;5078804;28;20032;-54
2023/12/17 04:07:52;;;;;;;122.53;53.70;;;-2.30;99.90;;;;;;5078441;28;20066;-55
2023/12/17 04:10:18;;;;;;;122.05;54.00;;;-2.40;99.90;;;;;;5078468;28;20032;-54
2023/12/17 04:12:43;;;;;;;130.88;56.30;;;-2.50;99.90;;;;;;5078454;28;20025;-54
2023/12/17 04:15:09;;;;;;;131.27;58.75;;;-2.50;99.90;;;;;;5078459;27;20103;-54
2023/12/17 04:17:35;;;;;;;126.32;56.47;;;-2.50;99.90;;;;;;5078304;28;20086;-54
2023/12/17 04:20:01;;;;;;;117.82;53.47;;;-2.60;99.90;;;;;;5078352;28;20036;-54
2023/12/17 04:22:27;;;;;;;130.10;57.15;;;-2.70;99.90;;;;;;5078495;28;20050;-54
2023/12/17 04:24:53;;;;;;;132.57;56.90;;;-2.70;99.90;;;;;;5078274;28;20119;-54
2023/12/17 04:27:19;;;;;;;135.35;58.05;;;-2.70;99.90;;;;;;5078178;28;20454;-54
2023/12/17 04:29:45;;;;;;;125.40;57.30;;;-2.70;99.90;;;;;;5078456;27;20037;-54
2023/12/17 04:32:11;;;;;;;122.05;56.67;;;-2.60;99.90;;;;;;5078044;28;20382;-54
2023/12/17 04:34:37;;;;;;;131.38;59.55;;;-2.60;99.90;;;;;;5078154;28;20033;-54
2023/12/17 04:37:03;;;;;;;131.23;56.30;;;-2.50;99.90;;;;;;5077987;28;20116;-54
2023/12/17 04:39:29;;;;;;;122.25;55.70;;;-2.50;99.90;;;;;;5078561;28;20053;-54
2023/12/17 04:41:55;;;;;;;129.50;54.10;;;-2.70;99.90;;;;;;5078029;28;20497;-54
2023/12/17 04:44:21;;;;;;;119.63;54.05;;;-2.80;99.90;;;;;;5077791;28;20474;-54
2023/12/17 04:46:47;;;;;;;124.72;54.47;;;-2.70;99.90;;;;;;5077743;27;20557;-54
2023/12/17 04:49:13;;;;;;;130.02;56.00;;;-2.80;99.90;;;;;;5077831;28;20398;-54
2023/12/17 04:51:39;;;;;;;128.15;56.92;;;-2.90;99.90;;;;;;5076716;28;20033;-54
2023/12/17 04:54:04;;;;;;;142.93;60.58;;;-3.00;99.90;;;;;;5077759;28;20108;-54
2023/12/17 04:56:30;;;;;;;148.95;61.75;;;-3.00;99.90;;;;;;5077682;28;20458;-54
2023/12/17 04:58:56;;;;;;;155.50;64.47;;;-3.00;99.90;;;;;;5077673;28;20039;-54
2023/12/17 05:01:22;;;;;;;246.02;91.63;;;-2.90;99.90;;;;;;5077511;27;20150;-54
2023/12/17 05:03:48;;;;;;;257.08;95.55;;;-2.80;99.90;;;;;;5077695;28;20033;-54
2023/12/17 05:06:14;;;;;;;234.98;84.78;;;-2.90;99.90;;;;;;5077613;28;20453;-54
2023/12/17 05:08:39;;;;;;;243.30;89.32;;;-3.00;99.90;;;;;;5077460;28;20033;-54
2023/12/17 05:11:05;;;;;;;258.50;92.57;;;-3.00;99.90;;;;;;5077412;28;20036;-54
2023/12/17 05:13:31;;;;;;;163.77;67.57;;;-3.10;99.90;;;;;;5077271;27;20071;-55
2023/12/17 05:15:57;;;;;;;157.15;63.10;;;-3.30;99.90;;;;;;5077425;28;20397;-54
2023/12/17 05:18:23;;;;;;;145.93;62.65;;;-3.30;99.90;;;;;;5077154;28;20035;-54
2023/12/17 05:20:49;;;;;;;136.75;60.28;;;-3.20;99.90;;;;;;5077311;28;20036;-54
2023/12/17 05:23:15;;;;;;;140.70;58.70;;;-3.20;99.90;;;;;;5077255;28;20127;-54
2023/12/17 05:25:41;;;;;;;133.15;57.83;;;-3.10;99.90;;;;;;5077172;28;20119;-54
2023/12/17 05:28:09;;;;;;;142.48;59.50;;;-3.00;99.90;;;;;;5077187;28;20064;-54
2023/12/17 05:30:35;;;;;;;126.90;54.55;;;-2.90;99.90;;;;;;5076962;28;20024;-54
2023/12/17 05:33:02;;;;;;;124.07;57.45;;;-2.90;99.90;;;;;;5077193;27;20054;-54
2023/12/17 05:35:28;;;;;;;136.52;57.58;;;-3.00;99.90;;;;;;5077045;28;20463;-54
2023/12/17 05:37:53;;;;;;;134.95;56.17;;;-3.10;99.90;;;;;;5076739;28;20082;-54
2023/12/17 05:40:19;;;;;;;139.90;61.65;;;-3.10;99.90;;;;;;5076885;28;20048;-54
2023/12/17 05:42:45;;;;;;;131.55;58.03;;;-3.10;99.90;;;;;;5076664;28;20402;-54
2023/12/17 05:45:11;;;;;;;199.15;79.10;;;-3.10;99.90;;;;;;5076857;28;20397;-54
2023/12/17 05:47:39;;;;;;;191.70;78.53;;;-3.10;99.90;;;;;;5076730;27;20100;-54
2023/12/17 05:50:05;;;;;;;304.38;127.68;;;-3.20;99.90;;;;;;5076588;28;20470;-54
2023/12/17 05:52:32;;;;;;;233.63;99.85;;;-3.20;99.90;;;;;;5076588;28;20489;-54
2023/12/17 05:54:58;;;;;;;207.13;94.13;;;-3.10;99.90;;;;;;5076664;28;20020;-54
2023/12/17 05:57:23;;;;;;;184.38;83.38;;;-3.10;99.90;;;;;;5076403;28;20377;-54
2023/12/17 05:59:49;;;;;;;161.95;72.95;;;-3.10;99.90;;;;;;5076575;28;20027;-54
2023/12/17 06:02:15;;;;;;;173.95;88.55;;;-3.00;99.90;;;;;;5076575;27;20035;-54
2023/12/17 06:04:41;;;;;;;168.65;80.80;;;-3.10;99.90;;;;;;5076465;28;20028;-54
2023/12/17 06:07:07;;;;;;;142.45;67.55;;;-3.20;99.90;;;;;;5076255;28;20393;-54
2023/12/17 06:09:33;;;;;;;144.90;66.32;;;-3.20;99.90;;;;;;5076261;28;20386;-54
2023/12/17 06:11:59;;;;;;;134.20;60.08;;;-3.10;99.90;;;;;;5076101;28;20028;-54
2023/12/17 06:14:25;;;;;;;125.90;58.85;;;-3.10;99.90;;;;;;5076237;28;20017;-54
2023/12/17 06:16:50;;;;;;;128.77;58.42;;;-3.00;99.90;;;;;;5075941;27;20416;-54
2023/12/17 06:19:16;;;;;;;132.30;56.75;;;-3.00;99.90;;;;;;5076054;28;20047;-54
2023/12/17 06:21:42;;;;;;;149.43;60.10;;;-3.00;99.90;;;;;;5076097;28;20119;-54
2023/12/17 06:24:08;;;;;;;159.77;66.03;;;-3.20;99.90;;;;;;5076114;28;20074;-54
2023/12/17 06:26:36;;;;;;;151.75;63.58;;;-3.10;99.90;;;;;;5075761;28;20059;-54
2023/12/17 06:29:02;;;;;;;155.63;64.82;;;-3.00;99.90;;;;;;5075965;28;20028;-54
2023/12/17 06:31:28;;;;;;;162.82;67.75;;;-2.80;99.90;;;;;;5076135;28;20112;-54
2023/12/17 06:33:54;;;;;;;160.82;63.55;;;-2.80;99.90;;;;;;5075971;27;20036;-54
2023/12/17 06:36:20;;;;;;;175.57;66.95;;;-2.70;99.90;;;;;;5075710;28;20074;-54
2023/12/17 06:38:47;;;;;;;181.02;69.63;;;-2.70;99.90;;;;;;5075840;28;20060;-54
2023/12/17 06:41:13;;;;;;;194.48;71.63;;;-2.90;99.90;;;;;;5074366;28;20047;-54
2023/12/17 06:43:40;;;;;;;191.10;74.22;;;-2.90;99.90;;;;;;5075818;28;20036;-54
2023/12/17 06:46:07;;;;;;;186.82;72.32;;;-2.90;99.90;;;;;;5075709;28;20028;-54
2023/12/17 06:48:34;;;;;;;205.65;75.75;;;-2.90;99.90;;;;;;5075481;27;20041;-54
2023/12/17 06:51:03;;;;;;;191.73;72.93;;;-2.90;99.90;;;;;;5075905;28;20025;-54
2023/12/17 06:53:29;;;;;;;181.60;70.72;;;-3.10;99.90;;;;;;5075538;28;20078;-54
2023/12/17 06:55:56;;;;;;;178.65;67.35;;;-3.20;99.90;;;;;;5075830;28;20029;-54
2023/12/17 06:58:22;;;;;;;170.55;67.55;;;-3.30;99.90;;;;;;5075542;28;20070;-54
2023/12/17 07:00:48;;;;;;;180.07;72.68;;;-3.10;99.90;;;;;;5075512;28;20025;-54
2023/12/17 07:03:18;;;;;;;180.27;72.00;;;-3.00;99.90;;;;;;5075472;27;20383;-54
2023/12/17 07:05:44;;;;;;;178.98;74.05;;;-3.00;99.90;;;;;;5075510;28;20059;-54
2023/12/17 07:08:10;;;;;;;159.77;68.05;;;-2.90;99.90;;;;;;5075253;28;20434;-54
2023/12/17 07:10:36;;;;;;;180.63;76.80;;;-2.80;99.90;;;;;;5075389;28;20029;-54
2023/12/17 07:13:03;;;;;;;190.93;78.35;;;-2.60;99.90;;;;;;5075425;28;20025;-54
2023/12/17 07:15:29;;;;;;;186.80;75.50;;;-2.40;99.90;;;;;;5074909;28;20496;-54
2023/12/17 07:17:55;;;;;;;181.05;69.28;;;-2.30;99.90;;;;;;5075307;28;20024;-54
2023/12/17 07:20:21;;;;;;;191.68;71.15;;;-2.00;99.90;;;;;;5075155;27;20398;-54
2023/12/17 07:22:48;;;;;;;205.77;69.75;;;-1.70;99.90;;;;;;5075252;28;20024;-55
2023/12/17 07:25:16;;;;;;;326.95;79.95;;;-1.50;99.90;;;;;;5075316;28;20430;-54
2023/12/17 07:27:42;;;;;;;934.42;113.28;;;-1.00;99.90;;;;;;5075262;28;20047;-54
2023/12/17 07:30:08;;;;;;;1999.90;392.40;;;-0.50;99.90;;;;;;5075275;28;20040;-54
2023/12/17 07:32:34;;;;;;;1999.90;559.20;;;0.50;99.90;;;;;;5075166;28;20024;-54
2023/12/17 07:35:00;;;;;;;377.38;84.97;;;1.90;99.90;;;;;;5075114;27;20118;-54
2023/12/17 07:37:25;;;;;;;185.13;71.85;;;2.50;99.90;;;;;;5074921;28;20374;-55
2023/12/17 07:39:51;;;;;;;171.68;70.43;;;3.60;99.90;;;;;;5075206;28;20028;-55
2023/12/17 07:42:17;;;;;;;160.18;66.13;;;3.60;93.20;;;;;;5075100;28;20139;-55
2023/12/17 07:44:44;;;;;;;167.27;66.40;;;4.50;91.10;;;;;;5075153;28;20166;-55
2023/12/17 07:47:10;;;;;;;161.85;67.40;;;4.80;84.90;;;;;;5075063;28;20063;-55
2023/12/17 07:49:37;;;;;;;157.82;69.65;;;4.40;85.40;;;;;;5074790;27;20124;-55
2023/12/17 07:52:03;;;;;;;180.65;73.75;;;4.70;82.50;;;;;;5074826;28;20024;-55
2023/12/17 07:54:29;;;;;;;162.15;69.72;;;4.60;80.60;;;;;;5075052;28;20024;-55
2023/12/17 07:56:55;;;;;;;151.90;69.78;;;5.00;80.70;;;;;;5075028;28;20016;-56
2023/12/17 07:59:21;;;;;;;168.88;73.47;;;6.20;76.80;;;;;;5075013;28;20020;-56
2023/12/17 08:01:48;;;;;;;164.98;74.70;;;6.10;75.70;;;;;;5074833;28;20028;-56
2023/12/17 08:04:14;;;;;;;176.32;77.85;;;6.00;72.80;;;;;;5074859;27;20500;-56
2023/12/17 08:06:39;;;;;;;186.50;78.93;;;6.10;70.90;;;;;;5074735;28;20060;-56
2023/12/17 08:09:05;;;;;;;179.30;80.57;;;6.20;70.50;;;;;;5074701;28;20024;-56
2023/12/17 08:11:31;;;;;;;200.30;84.57;;;6.50;72.40;;;;;;5074852;28;20390;-56
2023/12/17 08:13:57;;;;;;;195.73;86.15;;;6.80;68.80;;;;;;5074842;28;20082;-56
2023/12/17 08:16:23;;;;;;;195.55;85.03;;;7.20;66.70;;;;;;5074605;28;20074;-56
2023/12/17 08:18:49;;;;;;;195.07;88.32;;;7.50;66.20;;;;;;5074508;27;20112;-56
2023/12/17 08:21:15;;;;;;;189.55;84.75;;;7.00;65.00;;;;;;5074631;28;20036;-56
2023/12/17 08:23:40;;;;;;;200.52;85.90;;;7.60;62.80;;;;;;5074767;28;20098;-56
2023/12/17 08:26:06;;;;;;;183.35;84.55;;;7.60;62.40;;;;;;5075387;28;20029;-56
2023/12/17 08:28:32;;;;;;;175.52;79.72;;;8.90;59.80;;;;;;5078265;28;20059;-56
2023/12/17 08:30:59;;;;;;;194.90;85.72;;;8.50;61.10;;;;;;5078491;28;20039;-56
2023/12/17 08:33:25;;;;;;;186.85;94.10;;;7.40;60.10;;;;;;5078061;27;20447;-56
2023/12/17 08:35:51;;;;;;;197.05;94.10;;;7.60;59.10;;;;;;5078024;28;20017;-56
2023/12/17 08:38:17;;;;;;;189.30;97.80;;;8.10;58.70;;;;;;5077939;28;20032;-56
2023/12/17 08:40:46;;;;;;;206.95;105.63;;;8.50;58.90;;;;;;5078099;28;20024;-56
2023/12/17 08:43:12;;;;;;;194.35;103.90;;;9.10;57.60;;;;;;5078250;28;20029;-56
2023/12/17 08:45:38;;;;;;;187.30;100.38;;;9.70;55.10;;;;;;5078007;28;20059;-56
2023/12/17 08:48:05;;;;;;;182.70;95.63;;;10.10;54.40;;;;;;5077815;28;20436;-56
2023/12/17 08:50:31;;;;;;;180.38;96.38;;;9.20;57.40;;;;;;5077787;27;20045;-56
2023/12/17 08:52:57;;;;;;;176.25;89.63;;;9.00;54.70;;;;;;5077874;28;20490;-56
2023/12/17 08:55:23;;;;;;;158.27;85.20;;;9.60;57.50;;;;;;5077815;28;20035;-56
2023/12/17 08:57:49;;;;;;;174.40;86.53;;;11.20;51.60;;;;;;5077805;28;20205;-56
2023/12/17 09:00:18;;;;;;;170.82;84.68;;;10.50;51.60;;;;;;5077779;28;20360;-56
2023/12/17 09:02:44;;;;;;;154.13;80.23;;;10.90;51.60;;;;;;5077541;28;20021;-56
2023/12/17 09:05:10;;;;;;;160.80;80.93;;;11.40;49.80;;;;;;5077570;27;20102;-56
2023/12/17 09:07:36;;;;;;;158.18;83.30;;;11.00;49.80;;;;;;5077424;28;20039;-56
2023/12/17 09:10:03;;;;;;;161.95;85.05;;;9.80;52.60;;;;;;5077444;28;20025;-56
2023/12/17 09:12:29;;;;;;;155.68;79.38;;;9.30;52.70;;;;;;5077468;28;20025;-56
2023/12/17 09:14:54;;;;;;;161.50;80.43;;;10.60;53.20;;;;;;5077439;28;20031;-56
2023/12/17 09:17:20;;;;;;;161.55;79.13;;;9.60;53.70;;;;;;5077265;28;20031;-56
2023/12/17 09:19:47;;;;;;;149.25;75.97;;;10.60;53.60;;;;;;5077204;27;20032;-56
2023/12/17 09:22:13;;;;;;;161.75;83.60;;;10.30;53.80;;;;;;5077315;28;20425;-56
2023/12/17 09:24:40;;;;;;;159.15;82.63;;;11.20;51.40;;;;;;5077207;28;20036;-56
2023/12/17 09:27:06;;;;;;;164.95;85.07;;;11.50;50.10;;;;;;5077025;28;20031;-56
2023/12/17 09:29:32;;;;;;;163.63;85.93;;;12.00;48.50;;;;;;5077109;28;20389;-56
2023/12/17 09:31:58;;;;;;;176.68;87.72;;;11.90;48.90;;;;;;5076896;28;20063;-56
2023/12/17 09:34:24;;;;;;;169.55;88.63;;;11.10;50.90;;;;;;5077000;27;20059;-56
2023/12/17 09:36:50;;;;;;;172.30;90.03;;;11.50;50.40;;;;;;5076398;28;20024;-56
2023/12/17 09:39:16;;;;;;;163.93;89.63;;;12.20;49.10;;;;;;5076935;28;20107;-56
2023/12/17 09:41:42;;;;;;;151.60;80.43;;;12.60;47.20;;;;;;5076825;28;20035;-56
2023/12/17 09:44:08;;;;;;;148.98;81.97;;;11.10;49.60;;;;;;5076756;28;20384;-56
2023/12/17 09:46:35;;;;;;;145.32;81.18;;;11.70;48.30;;;;;;5076601;28;20078;-56
2023/12/17 09:49:01;;;;;;;150.32;82.43;;;10.70;51.30;;;;;;5076506;27;20862;-56
2023/12/17 09:51:28;;;;;;;160.20;85.72;;;11.20;52.40;;;;;;5076617;28;20037;-56
2023/12/17 09:53:56;;;;;;;154.02;85.93;;;12.10;49.70;;;;;;5076543;28;20112;-56
2023/12/17 09:56:22;;;;;;;153.48;86.45;;;12.40;47.30;;;;;;5076535;28;20021;-56
2023/12/17 09:58:48;;;;;;;147.55;81.43;;;11.90;48.00;;;;;;5076489;28;20013;-56
2023/12/17 10:01:14;;;;;;;154.20;81.35;;;11.20;50.10;;;;;;5076304;28;20374;-56
2023/12/17 10:03:40;;;;;;;148.27;81.68;;;11.70;49.10;;;;;;5076444;28;20024;-56
2023/12/17 10:06:06;;;;;;;143.23;81.20;;;11.60;50.00;;;;;;5076386;27;20044;-56
2023/12/17 10:08:33;;;;;;;147.18;82.40;;;11.80;50.40;;;;;;5076331;28;20036;-56
2023/12/17 10:11:00;;;;;;;157.30;86.38;;;12.60;48.00;;;;;;5076243;28;20474;-56
2023/12/17 10:13:26;;;;;;;154.63;86.32;;;12.30;48.70;;;;;;5076257;28;20025;-56
2023/12/17 10:15:54;;;;;;;148.63;83.45;;;12.10;49.40;;;;;;5076551;28;20016;-56
2023/12/17 10:18:21;;;;;;;144.85;82.78;;;12.40;49.00;;;;;;5076026;28;20546;-56
2023/12/17 10:20:48;;;;;;;150.55;84.80;;;11.80;49.30;;;;;;5076058;27;20521;-56
2023/12/17 10:23:14;;;;;;;150.93;84.25;;;12.50;50.20;;;;;;5076115;28;20036;-56
2023/12/17 10:25:42;;;;;;;146.07;82.30;;;12.80;49.00;;;;;;5076050;28;20382;-56
2023/12/17 10:28:12;;;;;;;135.30;77.32;;;12.70;47.70;;;;;;5075729;28;20037;-56
2023/12/17 10:30:40;;;;;;;137.57;80.20;;;12.60;46.80;;;;;;5075926;28;20085;-56
2023/12/17 10:33:07;;;;;;;138.95;74.82;;;10.40;50.80;;;;;;5075949;28;20017;-56
2023/12/17 10:35:33;;;;;;;119.13;70.60;;;11.50;51.40;;;;;;5075851;28;20077;-56
2023/12/17 10:38:02;;;;;;;121.95;69.93;;;12.10;49.60;;;;;;5075495;27;20440;-56
2023/12/17 10:40:29;;;;;;;118.20;65.90;;;11.90;48.50;;;;;;5075775;28;20485;-56
2023/12/17 10:42:59;;;;;;;116.45;67.05;;;12.60;47.40;;;;;;5075653;28;20114;-56
2023/12/17 10:45:26;;;;;;;135.25;73.78;;;12.90;47.60;;;;;;5075719;28;20028;-56
2023/12/17 10:47:53;;;;;;;124.97;69.70;;;12.80;47.80;;;;;;5075541;28;20130;-56
2023/12/17 10:50:20;;;;;;;125.00;70.80;;;13.30;46.30;;;;;;5074812;28;20469;-56
2023/12/17 10:52:49;;;;;;;124.28;72.43;;;13.60;45.80;;;;;;5075471;27;20037;-56
2023/12/17 10:55:17;;;;;;;125.90;74.20;;;13.40;46.10;;;;;;5075471;28;20067;-56
2023/12/17 10:58:03;;;;;;;129.90;73.63;;;13.20;46.40;;;;;;5075536;28;20037;-56
2023/12/17 11:00:32;;;;;;;128.13;70.85;;;13.80;46.10;;;;;;5075472;28;20024;-56
2023/12/17 11:03:02;;;;;;;117.35;70.20;;;13.50;46.90;;;;;;5075448;28;20024;-57
2023/12/17 11:05:28;;;;;;;128.82;72.38;;;14.00;45.10;;;;;;5075501;28;20082;-56
2023/12/17 11:07:54;;;;;;;116.47;69.38;;;13.70;45.80;;;;;;5075055;27;20041;-56
2023/12/17 11:10:20;;;;;;;125.20;70.43;;;13.80;46.00;;;;;;5075374;28;20029;-56
2023/12/17 11:12:46;;;;;;;121.53;72.57;;;13.80;46.30;;;;;;5075309;28;20523;-56
2023/12/17 11:15:12;;;;;;;108.50;66.05;;;14.00;44.80;;;;;;5075396;28;20050;-56
2023/12/17 11:17:39;;;;;;;119.25;71.25;;;14.00;44.70;;;;;;5075345;28;20081;-56
2023/12/17 11:20:06;;;;;;;116.57;69.88;;;13.90;44.00;;;;;;5075160;27;20498;-56
2023/12/17 11:22:38;;;;;;;112.32;66.85;;;13.60;45.50;;;;;;5075223;28;20028;-56
2023/12/17 11:25:09;;;;;;;105.20;61.17;;;13.40;45.30;;;;;;5075328;28;20030;-56
2023/12/17 11:27:35;;;;;;;104.32;61.30;;;13.10;46.00;;;;;;5075456;28;20028;-56
2023/12/17 11:30:01;;;;;;;99.47;58.80;;;13.60;44.40;;;;;;5075302;28;20081;-56
2023/12/17 11:32:27;;;;;;;99.88;55.85;;;13.70;46.00;;;;;;5075086;28;20470;-56
2023/12/17 11:34:55;;;;;;;92.75;54.95;;;14.00;43.50;;;;;;5075092;28;20424;-56
2023/12/17 11:37:22;;;;;;;59.97;37.13;;;13.20;43.70;;;;;;5074972;27;20028;-57
2023/12/17 11:39:49;;;;;;;65.80;39.55;;;14.00;40.20;;;;;;5075124;28;20036;-56
2023/12/17 11:42:17;;;;;;;71.32;42.67;;;13.70;40.40;;;;;;5075127;28;20028;-56
2023/12/17 11:44:52;;;;;;;68.57;41.42;;;14.70;38.80;;;;;;5075117;28;20023;-56
2023/12/17 11:47:26;;;;;;;65.40;37.40;;;14.80;37.90;;;;;;5074961;28;20044;-56
2023/12/17 11:49:58;;;;;;;61.38;35.85;;;14.80;39.10;;;;;;5075055;28;20162;-56
2023/12/17 11:52:25;;;;;;;50.92;31.17;;;14.60;38.50;;;;;;5074903;27;20107;-56
2023/12/17 11:55:01;;;;;;;50.47;30.73;;;15.20;34.90;;;;;;5075046;28;20021;-56
2023/12/17 11:57:28;;;;;;;49.60;29.20;;;15.10;35.30;;;;;;5074998;28;20033;-56
2023/12/17 11:59:54;;;;;;;49.42;30.98;;;14.50;36.50;;;;;;5075148;28;20029;-56
2023/12/17 12:02:22;;;;;;;56.20;30.20;;;14.80;36.20;;;;;;5078737;28;20086;-56
2023/12/17 12:04:51;;;;;;;51.85;31.27;;;15.10;34.40;;;;;;5078757;28;20020;-56
2023/12/17 12:07:19;;;;;;;62.40;33.78;;;15.40;34.60;;;;;;5078762;27;20033;-57
2023/12/17 12:09:48;;;;;;;58.55;36.20;;;14.60;36.00;;;;;;5078496;28;20055;-56
2023/12/17 12:12:19;;;;;;;64.75;38.25;;;15.00;36.20;;;;;;5078449;28;20033;-56